sensor_id;sensor_type;location;lat;lon;timestamp;pressure;altitude;pressure_sealevel;temperature;humidity
64253;BME280;50592;52.958;-7.470;2023-02-28T00:00:40;102516.94;;;4.94;100.00
64253;BME280;50592;52.958;-7.470;2023-02-28T00:03:06;102519.47;;;4.97;100.00
64253;BME280;50592;52.958;-7.470;2023-02-28T00:05:32;102519.34;;;5.00;100.00
64253;BME280;50592;52.958;-7.470;2023-02-28T00:07:58;102521.84;;;5.03;100.00
64253;BME280;50592;52.958;-7.470;2023-02-28T00:10:27;102524.41;;;5.05;100.00
64253;BME280;50592;52.958;-7.470;2023-02-28T00:12:55;102522.72;;;5.04;100.00
64253;BME280;50592;52.958;-7.470;2023-02-28T00:15:23;102517.53;;;5.02;100.00
64253;BME280;50592;52.958;-7.470;2023-02-28T00:17:49;102518.75;;;4.93;100.00
64253;BME280;50592;52.958;-7.470;2023-02-28T00:20:15;102512.84;;;4.87;100.00
64253;BME280;50592;52.958;-7.470;2023-02-28T00:22:44;102512.22;;;4.80;100.00
64253;BME280;50592;52.958;-7.470;2023-02-28T00:25:12;102527.22;;;4.75;100.00
64253;BME280;50592;52.958;-7.470;2023-02-28T00:27:39;102519.59;;;4.68;100.00
64253;BME280;50592;52.958;-7.470;2023-02-28T00:30:10;102524.06;;;4.66;100.00
64253;BME280;50592;52.958;-7.470;2023-02-28T00:32:37;102528.47;;;4.64;100.00
64253;BME280;50592;52.958;-7.470;2023-02-28T00:35:03;102535.47;;;4.64;100.00
64253;BME280;50592;52.958;-7.470;2023-02-28T00:37:29;102534.53;;;4.66;100.00
64253;BME280;50592;52.958;-7.470;2023-02-28T00:39:56;102530.13;;;4.67;100.00
64253;BME280;50592;52.958;-7.470;2023-02-28T00:42:22;102538.69;;;4.72;100.00
64253;BME280;50592;52.958;-7.470;2023-02-28T00:44:48;102541.97;;;4.79;100.00
64253;BME280;50592;52.958;-7.470;2023-02-28T00:47:13;102536.50;;;4.85;100.00
64253;BME280;50592;52.958;-7.470;2023-02-28T00:49:40;102532.72;;;4.92;100.00
64253;BME280;50592;52.958;-7.470;2023-02-28T00:52:05;102543.84;;;4.99;100.00
64253;BME280;50592;52.958;-7.470;2023-02-28T00:54:31;102543.75;;;5.02;100.00
64253;BME280;50592;52.958;-7.470;2023-02-28T00:56:57;102545.38;;;5.05;100.00
64253;BME280;50592;52.958;-7.470;2023-02-28T00:59:24;102541.81;;;5.07;100.00
64253;BME280;50592;52.958;-7.470;2023-02-28T01:01:50;102542.63;;;5.09;100.00
64253;BME280;50592;52.958;-7.470;2023-02-28T01:04:15;102547.00;;;5.09;100.00
64253;BME280;50592;52.958;-7.470;2023-02-28T01:06:42;102555.69;;;5.11;100.00
64253;BME280;50592;52.958;-7.470;2023-02-28T01:09:10;102555.63;;;5.13;100.00
64253;BME280;50592;52.958;-7.470;2023-02-28T01:11:37;102565.19;;;5.14;100.00
64253;BME280;50592;52.958;-7.470;2023-02-28T01:14:03;102561.66;;;5.15;100.00
64253;BME280;50592;52.958;-7.470;2023-02-28T01:16:30;102566.06;;;5.14;100.00
64253;BME280;50592;52.958;-7.470;2023-02-28T01:18:56;102568.63;;;5.16;100.00
64253;BME280;50592;52.958;-7.470;2023-02-28T01:21:22;102565.13;;;5.15;100.00
64253;BME280;50592;52.958;-7.470;2023-02-28T01:23:49;102562.44;;;5.17;100.00
64253;BME280;50592;52.958;-7.470;2023-02-28T01:26:18;102557.22;;;5.17;100.00
64253;BME280;50592;52.958;-7.470;2023-02-28T01:28:45;102560.00;;;5.12;100.00
64253;BME280;50592;52.958;-7.470;2023-02-28T01:31:11;102562.63;;;5.12;100.00
64253;BME280;50592;52.958;-7.470;2023-02-28T01:33:38;102560.16;;;5.07;100.00
64253;BME280;50592;52.958;-7.470;2023-02-28T01:36:12;102555.84;;;5.06;100.00
64253;BME280;50592;52.958;-7.470;2023-02-28T01:38:39;102556.97;;;4.99;100.00
64253;BME280;50592;52.958;-7.470;2023-02-28T01:41:06;102552.66;;;4.98;100.00
64253;BME280;50592;52.958;-7.470;2023-02-28T01:46:12;102557.25;;;4.91;100.00
64253;BME280;50592;52.958;-7.470;2023-02-28T01:48:45;102571.88;;;4.97;100.00
64253;BME280;50592;52.958;-7.470;2023-02-28T01:51:22;102570.13;;;4.97;100.00
64253;BME280;50592;52.958;-7.470;2023-02-28T01:53:57;102562.22;;;4.99;100.00
64253;BME280;50592;52.958;-7.470;2023-02-28T01:56:29;102552.47;;;5.03;100.00
64253;BME280;50592;52.958;-7.470;2023-02-28T01:58:56;102563.78;;;5.03;100.00
64253;BME280;50592;52.958;-7.470;2023-02-28T02:01:24;102549.69;;;5.07;100.00
64253;BME280;50592;52.958;-7.470;2023-02-28T02:03:55;102558.31;;;5.11;100.00
64253;BME280;50592;52.958;-7.470;2023-02-28T02:06:26;102566.88;;;5.15;100.00
64253;BME280;50592;52.958;-7.470;2023-02-28T02:08:53;102555.56;;;5.14;100.00
64253;BME280;50592;52.958;-7.470;2023-02-28T02:11:22;102545.84;;;5.16;100.00
64253;BME280;50592;52.958;-7.470;2023-02-28T02:16:51;102545.19;;;5.11;100.00
64253;BME280;50592;52.958;-7.470;2023-02-28T02:19:26;102542.94;;;5.00;100.00
64253;BME280;50592;52.958;-7.470;2023-02-28T02:27:25;102557.41;;;4.87;100.00
64253;BME280;50592;52.958;-7.470;2023-02-28T02:30:20;102549.75;;;4.80;100.00
64253;BME280;50592;52.958;-7.470;2023-02-28T02:36:48;102550.75;;;4.76;100.00
64253;BME280;50592;52.958;-7.470;2023-02-28T02:39:04;102553.38;;;4.76;100.00
64253;BME280;50592;52.958;-7.470;2023-02-28T02:41:40;102554.09;;;4.81;100.00
64253;BME280;50592;52.958;-7.470;2023-02-28T02:44:23;102546.97;;;4.85;100.00
64253;BME280;50592;52.958;-7.470;2023-02-28T02:46:55;102553.09;;;4.86;100.00
64253;BME280;50592;52.958;-7.470;2023-02-28T02:49:34;102555.53;;;4.90;100.00
64253;BME280;50592;52.958;-7.470;2023-02-28T02:52:07;102550.19;;;4.93;100.00
64253;BME280;50592;52.958;-7.470;2023-02-28T02:54:37;102556.25;;;4.94;100.00
64253;BME280;50592;52.958;-7.470;2023-02-28T02:57:12;102554.34;;;4.99;100.00
64253;BME280;50592;52.958;-7.470;2023-02-28T02:59:42;102555.16;;;5.01;100.00
64253;BME280;50592;52.958;-7.470;2023-02-28T03:02:11;102547.19;;;5.04;100.00
64253;BME280;50592;52.958;-7.470;2023-02-28T03:04:52;102551.31;;;5.10;100.00
64253;BME280;50592;52.958;-7.470;2023-02-28T03:07:20;102549.69;;;5.07;100.00
64253;BME280;50592;52.958;-7.470;2023-02-28T03:09:55;102538.28;;;5.08;100.00
64253;BME280;50592;52.958;-7.470;2023-02-28T03:12:24;102543.75;;;5.02;100.00
64253;BME280;50592;52.958;-7.470;2023-02-28T03:23:21;102545.56;;;5.00;100.00
64253;BME280;50592;52.958;-7.470;2023-02-28T03:26:05;102546.38;;;5.02;100.00
64253;BME280;50592;52.958;-7.470;2023-02-28T03:31:22;102550.13;;;4.95;100.00
64253;BME280;50592;52.958;-7.470;2023-02-28T03:33:58;102551.06;;;4.92;100.00
64253;BME280;50592;52.958;-7.470;2023-02-28T03:36:29;102555.44;;;4.93;100.00
64253;BME280;50592;52.958;-7.470;2023-02-28T03:39:03;102552.88;;;4.92;100.00
64253;BME280;50592;52.958;-7.470;2023-02-28T03:41:42;102556.38;;;4.91;100.00
64253;BME280;50592;52.958;-7.470;2023-02-28T03:44:35;102557.41;;;4.87;100.00
64253;BME280;50592;52.958;-7.470;2023-02-28T03:47:08;102557.50;;;4.83;100.00
64253;BME280;50592;52.958;-7.470;2023-02-28T03:49:46;102556.66;;;4.83;100.00
64253;BME280;50592;52.958;-7.470;2023-02-28T03:52:17;102551.25;;;4.88;100.00
64253;BME280;50592;52.958;-7.470;2023-02-28T03:54:48;102550.25;;;4.92;100.00
64253;BME280;50592;52.958;-7.470;2023-02-28T03:57:28;102550.03;;;4.98;100.00
64253;BME280;50592;52.958;-7.470;2023-02-28T04:02:38;102559.41;;;5.04;100.00
64253;BME280;50592;52.958;-7.470;2023-02-28T04:05:06;102559.41;;;5.04;100.00
64253;BME280;50592;52.958;-7.470;2023-02-28T04:07:32;102565.53;;;5.04;100.00
64253;BME280;50592;52.958;-7.470;2023-02-28T04:09:57;102567.28;;;5.04;100.00
64253;BME280;50592;52.958;-7.470;2023-02-28T04:12:24;102568.16;;;5.04;100.00
64253;BME280;50592;52.958;-7.470;2023-02-28T04:14:49;102563.78;;;5.03;100.00
64253;BME280;50592;52.958;-7.470;2023-02-28T04:17:16;102560.34;;;5.03;100.00
64253;BME280;50592;52.958;-7.470;2023-02-28T04:19:42;102559.53;;;5.01;100.00
64253;BME280;50592;52.958;-7.470;2023-02-28T04:22:08;102559.75;;;4.94;100.00
64253;BME280;50592;52.958;-7.470;2023-02-28T04:24:35;102559.09;;;4.88;100.00
64253;BME280;50592;52.958;-7.470;2023-02-28T04:27:02;102564.41;;;4.86;100.00
64253;BME280;50592;52.958;-7.470;2023-02-28T04:29:30;102563.03;;;4.76;100.00
64253;BME280;50592;52.958;-7.470;2023-02-28T04:31:57;102558.78;;;4.71;100.00
64253;BME280;50592;52.958;-7.470;2023-02-28T04:34:25;102556.00;;;4.76;100.00
64253;BME280;50592;52.958;-7.470;2023-02-28T04:36:52;102560.31;;;4.79;100.00
64253;BME280;50592;52.958;-7.470;2023-02-28T04:39:20;102562.97;;;4.77;100.00
64253;BME280;50592;52.958;-7.470;2023-02-28T04:41:47;102563.19;;;4.71;100.00
64253;BME280;50592;52.958;-7.470;2023-02-28T04:44:13;102565.91;;;4.68;100.00
64253;BME280;50592;52.958;-7.470;2023-02-28T04:46:39;102566.19;;;4.60;100.00
64253;BME280;50592;52.958;-7.470;2023-02-28T04:49:05;102569.84;;;4.54;100.00
64253;BME280;50592;52.958;-7.470;2023-02-28T04:51:31;102576.06;;;4.52;100.00
64253;BME280;50592;52.958;-7.470;2023-02-28T04:53:57;102576.22;;;4.47;100.00
64253;BME280;50592;52.958;-7.470;2023-02-28T04:56:23;102577.97;;;4.46;100.00
64253;BME280;50592;52.958;-7.470;2023-02-28T04:58:49;102574.53;;;4.44;100.00
64253;BME280;50592;52.958;-7.470;2023-02-28T05:01:32;102579.75;;;4.44;100.00
64253;BME280;50592;52.958;-7.470;2023-02-28T05:04:00;102586.13;;;4.37;100.00
64253;BME280;50592;52.958;-7.470;2023-02-28T05:06:28;102584.44;;;4.36;100.00
64253;BME280;50592;52.958;-7.470;2023-02-28T05:08:55;102583.56;;;4.36;100.00
64253;BME280;50592;52.958;-7.470;2023-02-28T05:11:24;102583.59;;;4.34;100.00
64253;BME280;50592;52.958;-7.470;2023-02-28T05:13:52;102586.38;;;4.29;100.00
64253;BME280;50592;52.958;-7.470;2023-02-28T05:16:18;102597.91;;;4.24;100.00
64253;BME280;50592;52.958;-7.470;2023-02-28T05:18:44;102598.84;;;4.21;100.00
64253;BME280;50592;52.958;-7.470;2023-02-28T05:23:49;102603.31;;;4.17;100.00
64253;BME280;50592;52.958;-7.470;2023-02-28T05:26:15;102602.44;;;4.18;100.00
64253;BME280;50592;52.958;-7.470;2023-02-28T05:28:41;102611.13;;;4.19;100.00
64253;BME280;50592;52.958;-7.470;2023-02-28T05:31:10;102605.88;;;4.19;100.00
64253;BME280;50592;52.958;-7.470;2023-02-28T05:33:36;102598.94;;;4.18;100.00
64253;BME280;50592;52.958;-7.470;2023-02-28T05:36:02;102600.66;;;4.19;100.00
64253;BME280;50592;52.958;-7.470;2023-02-28T05:38:28;102607.66;;;4.18;100.00
64253;BME280;50592;52.958;-7.470;2023-02-28T05:40:54;102608.56;;;4.17;100.00
64253;BME280;50592;52.958;-7.470;2023-02-28T05:43:19;102610.28;;;4.18;100.00
64253;BME280;50592;52.958;-7.470;2023-02-28T05:45:45;102614.56;;;4.21;100.00
64253;BME280;50592;52.958;-7.470;2023-02-28T05:48:11;102608.34;;;4.25;100.00
64253;BME280;50592;52.958;-7.470;2023-02-28T05:50:37;102607.47;;;4.25;100.00
64253;BME280;50592;52.958;-7.470;2023-02-28T05:53:03;102615.22;;;4.28;100.00
64253;BME280;50592;52.958;-7.470;2023-02-28T05:55:28;102613.47;;;4.28;100.00
64253;BME280;50592;52.958;-7.470;2023-02-28T05:57:54;102613.47;;;4.28;100.00
64253;BME280;50592;52.958;-7.470;2023-02-28T06:00:21;102616.09;;;4.28;100.00
64253;BME280;50592;52.958;-7.470;2023-02-28T06:02:47;102618.63;;;4.31;100.00
64253;BME280;50592;52.958;-7.470;2023-02-28T06:05:15;102617.66;;;4.34;100.00
64253;BME280;50592;52.958;-7.470;2023-02-28T06:07:43;102622.03;;;4.33;100.00
64253;BME280;50592;52.958;-7.470;2023-02-28T06:10:10;102620.22;;;4.36;100.00
64253;BME280;50592;52.958;-7.470;2023-02-28T06:12:37;102622.72;;;4.39;100.00
64253;BME280;50592;52.958;-7.470;2023-02-28T06:15:03;102622.63;;;4.42;100.00
64253;BME280;50592;52.958;-7.470;2023-02-28T06:17:29;102626.06;;;4.44;100.00
64253;BME280;50592;52.958;-7.470;2023-02-28T06:19:55;102624.19;;;4.47;100.00
64253;BME280;50592;52.958;-7.470;2023-02-28T06:22:21;102628.53;;;4.49;100.00
64253;BME280;50592;52.958;-7.470;2023-02-28T06:24:47;102628.47;;;4.50;100.00
64253;BME280;50592;52.958;-7.470;2023-02-28T06:27:13;102628.44;;;4.52;100.00
64253;BME280;50592;52.958;-7.470;2023-02-28T06:29:38;102620.47;;;4.55;100.00
64253;BME280;50592;52.958;-7.470;2023-02-28T06:32:07;102619.44;;;4.59;100.00
64253;BME280;50592;52.958;-7.470;2023-02-28T06:34:33;102622.94;;;4.59;100.00
64253;BME280;50592;52.958;-7.470;2023-02-28T06:36:59;102614.13;;;4.62;100.00
64253;BME280;50592;52.958;-7.470;2023-02-28T06:39:29;102622.72;;;4.66;100.00
64253;BME280;50592;52.958;-7.470;2023-02-28T06:41:54;102627.16;;;4.64;100.00
64253;BME280;50592;52.958;-7.470;2023-02-28T06:44:21;102623.66;;;4.65;100.00
64253;BME280;50592;52.958;-7.470;2023-02-28T06:46:48;102624.53;;;4.64;100.00
64253;BME280;50592;52.958;-7.470;2023-02-28T06:49:13;102614.88;;;4.66;100.00
64253;BME280;50592;52.958;-7.470;2023-02-28T06:51:41;102631.34;;;4.69;100.00
64253;BME280;50592;52.958;-7.470;2023-02-28T06:54:11;102634.81;;;4.70;100.00
64253;BME280;50592;52.958;-7.470;2023-02-28T06:56:37;102640.25;;;4.64;100.00
64253;BME280;50592;52.958;-7.470;2023-02-28T06:59:03;102636.03;;;4.59;100.00
64253;BME280;50592;52.958;-7.470;2023-02-28T07:01:29;102643.03;;;4.59;100.00
64253;BME280;50592;52.958;-7.470;2023-02-28T07:03:57;102640.56;;;4.54;100.00
64253;BME280;50592;52.958;-7.470;2023-02-28T07:06:24;102647.69;;;4.49;100.00
64253;BME280;50592;52.958;-7.470;2023-02-28T07:08:51;102658.31;;;4.44;100.00
64253;BME280;50592;52.958;-7.470;2023-02-28T07:11:18;102651.69;;;4.34;100.00
64253;BME280;50592;52.958;-7.470;2023-02-28T07:13:44;102648.50;;;4.24;100.00
64253;BME280;50592;52.958;-7.470;2023-02-28T07:16:12;102661.78;;;4.18;100.00
64253;BME280;50592;52.958;-7.470;2023-02-28T07:18:38;102668.13;;;4.11;100.00
64253;BME280;50592;52.958;-7.470;2023-02-28T07:21:06;102665.50;;;4.11;100.00
64253;BME280;50592;52.958;-7.470;2023-02-28T07:23:32;102667.34;;;4.07;100.00
64253;BME280;50592;52.958;-7.470;2023-02-28T07:25:58;102667.38;;;4.05;100.00
64253;BME280;50592;52.958;-7.470;2023-02-28T07:28:25;102666.56;;;4.03;100.00
64253;BME280;50592;52.958;-7.470;2023-02-28T07:30:50;102663.94;;;4.03;100.00
64253;BME280;50592;52.958;-7.470;2023-02-28T07:33:16;102669.19;;;4.03;100.00
64253;BME280;50592;52.958;-7.470;2023-02-28T07:35:42;102665.69;;;4.04;100.00
64253;BME280;50592;52.958;-7.470;2023-02-28T07:38:09;102676.00;;;4.09;100.00
64253;BME280;50592;52.958;-7.470;2023-02-28T07:40:36;102673.31;;;4.12;100.00
64253;BME280;50592;52.958;-7.470;2023-02-28T07:43:02;102667.19;;;4.12;100.00
64253;BME280;50592;52.958;-7.470;2023-02-28T07:45:29;102678.53;;;4.12;100.00
64253;BME280;50592;52.958;-7.470;2023-02-28T07:47:55;102678.50;;;4.14;100.00
64253;BME280;50592;52.958;-7.470;2023-02-28T07:50:21;102683.72;;;4.14;100.00
64253;BME280;50592;52.958;-7.470;2023-02-28T07:52:47;102681.91;;;4.16;100.00
64253;BME280;50592;52.958;-7.470;2023-02-28T07:55:13;102691.56;;;4.14;100.00
64253;BME280;50592;52.958;-7.470;2023-02-28T07:57:40;102688.91;;;4.15;100.00
64253;BME280;50592;52.958;-7.470;2023-02-28T08:00:08;102698.31;;;4.21;100.00
64253;BME280;50592;52.958;-7.470;2023-02-28T08:02:39;102698.31;;;4.21;100.00
64253;BME280;50592;52.958;-7.470;2023-02-28T08:05:06;102701.84;;;4.20;100.00
64253;BME280;50592;52.958;-7.470;2023-02-28T08:07:32;102691.47;;;4.17;100.00
64253;BME280;50592;52.958;-7.470;2023-02-28T08:09:59;102692.31;;;4.17;100.00
64253;BME280;50592;52.958;-7.470;2023-02-28T08:12:25;102694.06;;;4.18;100.00
64253;BME280;50592;52.958;-7.470;2023-02-28T08:14:51;102701.00;;;4.19;100.00
64253;BME280;50592;52.958;-7.470;2023-02-28T08:17:17;102703.56;;;4.21;100.00
64253;BME280;50592;52.958;-7.470;2023-02-28T08:19:45;102707.94;;;4.20;100.00
64253;BME280;50592;52.958;-7.470;2023-02-28T08:22:11;102707.94;;;4.20;100.00
64253;BME280;50592;52.958;-7.470;2023-02-28T08:24:37;102716.66;;;4.21;100.00
64253;BME280;50592;52.958;-7.470;2023-02-28T08:27:04;102721.97;;;4.18;100.00
64253;BME280;50592;52.958;-7.470;2023-02-28T08:29:29;102717.63;;;4.18;100.00
64253;BME280;50592;52.958;-7.470;2023-02-28T08:31:55;102717.47;;;4.23;100.00
64253;BME280;50592;52.958;-7.470;2023-02-28T08:34:21;102716.50;;;4.26;100.00
64253;BME280;50592;52.958;-7.470;2023-02-28T08:36:47;102726.94;;;4.27;100.00
64253;BME280;50592;52.958;-7.470;2023-02-28T08:39:13;102725.28;;;4.25;100.00
64253;BME280;50592;52.958;-7.470;2023-02-28T08:41:39;102721.75;;;4.26;100.00
64253;BME280;50592;52.958;-7.470;2023-02-28T08:44:05;102733.03;;;4.28;100.00
64253;BME280;50592;52.958;-7.470;2023-02-28T08:46:30;102732.13;;;4.29;100.00
64253;BME280;50592;52.958;-7.470;2023-02-28T08:48:57;102730.22;;;4.34;100.00
64253;BME280;50592;52.958;-7.470;2023-02-28T08:51:27;102724.09;;;4.35;100.00
64253;BME280;50592;52.958;-7.470;2023-02-28T08:53:55;102731.97;;;4.33;100.00
64253;BME280;50592;52.958;-7.470;2023-02-28T08:56:21;102734.59;;;4.33;100.00
64253;BME280;50592;52.958;-7.470;2023-02-28T08:58:49;102730.19;;;4.36;100.00
64253;BME280;50592;52.958;-7.470;2023-02-28T09:01:17;102732.72;;;4.39;100.00
64253;BME280;50592;52.958;-7.470;2023-02-28T09:03:51;102728.19;;;4.72;100.00
64253;BME280;50592;52.958;-7.470;2023-02-28T09:06:18;102730.44;;;4.56;100.00
64253;BME280;50592;52.958;-7.470;2023-02-28T09:08:44;102738.53;;;4.49;100.00
64253;BME280;50592;52.958;-7.470;2023-02-28T09:11:11;102735.03;;;4.48;100.00
64253;BME280;50592;52.958;-7.470;2023-02-28T09:13:37;102731.59;;;4.46;100.00
64253;BME280;50592;52.958;-7.470;2023-02-28T09:16:05;102723.69;;;4.47;100.00
64253;BME280;50592;52.958;-7.470;2023-02-28T09:18:31;102728.88;;;4.51;100.00
64253;BME280;50592;52.958;-7.470;2023-02-28T09:20:58;102734.72;;;4.59;100.00
64253;BME280;50592;52.958;-7.470;2023-02-28T09:23:24;102734.59;;;4.62;100.00
64253;BME280;50592;52.958;-7.470;2023-02-28T09:25:53;102736.25;;;4.66;100.00
64253;BME280;50592;52.958;-7.470;2023-02-28T09:28:20;102744.84;;;4.70;100.00
64253;BME280;50592;52.958;-7.470;2023-02-28T09:30:48;102739.38;;;4.78;100.00
64253;BME280;50592;52.958;-7.470;2023-02-28T09:33:15;102744.53;;;4.81;100.00
64253;BME280;50592;52.958;-7.470;2023-02-28T09:35:41;102735.69;;;4.83;100.00
64253;BME280;50592;52.958;-7.470;2023-02-28T09:38:09;102746.91;;;4.89;100.00
64253;BME280;50592;52.958;-7.470;2023-02-28T09:40:50;102739.72;;;4.94;100.00
64253;BME280;50592;52.958;-7.470;2023-02-28T09:43:18;102745.69;;;4.99;100.00
64253;BME280;50592;52.958;-7.470;2023-02-28T09:45:54;102742.13;;;5.00;100.00
64253;BME280;50592;52.958;-7.470;2023-02-28T09:48:28;102743.66;;;5.07;100.00
64253;BME280;50592;52.958;-7.470;2023-02-28T09:51:09;102748.00;;;5.08;100.00
64253;BME280;50592;52.958;-7.470;2023-02-28T09:53:38;102754.25;;;5.04;100.00
64253;BME280;50592;52.958;-7.470;2023-02-28T09:56:41;102755.75;;;5.12;100.00
64253;BME280;50592;52.958;-7.470;2023-02-28T10:04:51;102745.00;;;5.19;100.00
64253;BME280;50592;52.958;-7.470;2023-02-28T10:12:57;102756.03;;;5.29;100.00
64253;BME280;50592;52.958;-7.470;2023-02-28T10:15:28;102748.34;;;5.25;100.00
64253;BME280;50592;52.958;-7.470;2023-02-28T10:17:59;102754.41;;;5.27;100.00
64253;BME280;50592;52.958;-7.470;2023-02-28T10:20:28;102752.97;;;5.16;100.00
64253;BME280;50592;52.958;-7.470;2023-02-28T10:23:00;102753.53;;;5.26;100.00
64253;BME280;50592;52.958;-7.470;2023-02-28T10:25:35;102746.44;;;5.30;100.00
64253;BME280;50592;52.958;-7.470;2023-02-28T10:28:09;102747.06;;;5.37;100.00
64253;BME280;50592;52.958;-7.470;2023-02-28T10:30:42;102748.03;;;5.34;100.00
64253;BME280;50592;52.958;-7.470;2023-02-28T10:33:37;102748.72;;;5.39;100.00
64253;BME280;50592;52.958;-7.470;2023-02-28T10:36:04;102746.59;;;5.51;100.00
64253;BME280;50592;52.958;-7.470;2023-02-28T10:38:37;102741.13;;;5.57;100.00
64253;BME280;50592;52.958;-7.470;2023-02-28T10:41:12;102740.78;;;5.66;100.00
64253;BME280;50592;52.958;-7.470;2023-02-28T10:43:40;102739.03;;;5.67;100.00
64253;BME280;50592;52.958;-7.470;2023-02-28T10:48:42;102739.47;;;5.78;100.00
64253;BME280;50592;52.958;-7.470;2023-02-28T10:51:15;102732.66;;;5.74;100.00
64253;BME280;50592;52.958;-7.470;2023-02-28T10:53:53;102739.25;;;5.84;100.00
64253;BME280;50592;52.958;-7.470;2023-02-28T10:56:22;102741.03;;;5.84;100.00
64253;BME280;50592;52.958;-7.470;2023-02-28T10:59:26;102734.25;;;6.02;100.00
64253;BME280;50592;52.958;-7.470;2023-02-28T11:01:53;102732.47;;;6.04;100.00
64253;BME280;50592;52.958;-7.470;2023-02-28T11:04:20;102736.56;;;6.12;100.00
64253;BME280;50592;52.958;-7.470;2023-02-28T11:07:18;102729.09;;;5.99;100.00
64253;BME280;50592;52.958;-7.470;2023-02-28T11:09:50;102727.91;;;6.10;100.00
64253;BME280;50592;52.958;-7.470;2023-02-28T11:12:29;102728.84;;;6.07;100.00
64253;BME280;50592;52.958;-7.470;2023-02-28T11:15:00;102738.41;;;6.10;100.00
64253;BME280;50592;52.958;-7.470;2023-02-28T11:17:29;102739.34;;;6.07;100.00
64253;BME280;50592;52.958;-7.470;2023-02-28T11:19:58;102740.56;;;6.22;100.00
64253;BME280;50592;52.958;-7.470;2023-02-28T11:22:30;102738.63;;;6.27;100.00
64253;BME280;50592;52.958;-7.470;2023-02-28T11:25:00;102730.31;;;6.38;100.00
64253;BME280;50592;52.958;-7.470;2023-02-28T11:29:57;102732.97;;;6.14;100.00
64253;BME280;50592;52.958;-7.470;2023-02-28T11:32:28;102724.00;;;6.20;100.00
64253;BME280;50592;52.958;-7.470;2023-02-28T11:37:38;102720.47;;;6.21;100.00
64253;BME280;50592;52.958;-7.470;2023-02-28T11:57:37;102710.88;;;6.65;100.00
64253;BME280;50592;52.958;-7.470;2023-02-28T12:00:25;102708.44;;;6.60;100.00
64253;BME280;50592;52.958;-7.470;2023-02-28T12:11:51;102723.41;;;6.36;100.00
64253;BME280;50592;52.958;-7.470;2023-02-28T12:20:27;102720.47;;;6.43;100.00
64253;BME280;50592;52.958;-7.470;2023-02-28T12:28:40;102711.94;;;6.38;100.00
64253;BME280;50592;52.958;-7.470;2023-02-28T12:31:18;102717.84;;;6.43;100.00
64253;BME280;50592;52.958;-7.470;2023-02-28T12:33:50;102712.59;;;6.43;100.00
64253;BME280;50592;52.958;-7.470;2023-02-28T12:36:18;102713.50;;;6.42;100.00
64253;BME280;50592;52.958;-7.470;2023-02-28T12:38:56;102701.97;;;6.47;100.00
64253;BME280;50592;52.958;-7.470;2023-02-28T12:41:40;102699.09;;;6.53;100.00
64253;BME280;50592;52.958;-7.470;2023-02-28T12:44:12;102703.56;;;6.51;100.00
64253;BME280;50592;52.958;-7.470;2023-02-28T12:46:47;102694.63;;;6.55;100.00
64253;BME280;50592;52.958;-7.470;2023-02-28T12:49:25;102694.88;;;6.49;100.00
64253;BME280;50592;52.958;-7.470;2023-02-28T12:51:52;102696.47;;;6.53;100.00
64253;BME280;50592;52.958;-7.470;2023-02-28T12:54:31;102692.13;;;6.52;100.00
64253;BME280;50592;52.958;-7.470;2023-02-28T12:59:38;102690.06;;;6.38;100.00
64253;BME280;50592;52.958;-7.470;2023-02-28T13:07:56;102681.19;;;6.18;100.00
64253;BME280;50592;52.958;-7.470;2023-02-28T13:10:42;102683.25;;;6.10;100.00
64253;BME280;50592;52.958;-7.470;2023-02-28T13:13:18;102680.50;;;6.13;100.00
64253;BME280;50592;52.958;-7.470;2023-02-28T13:16:04;102679.78;;;6.09;100.00
64253;BME280;50592;52.958;-7.470;2023-02-28T13:21:01;102671.84;;;6.11;100.00
64253;BME280;50592;52.958;-7.470;2023-02-28T13:26:11;102674.56;;;6.07;100.00
64253;BME280;50592;52.958;-7.470;2023-02-28T13:31:24;102670.78;;;6.15;100.00
64253;BME280;50592;52.958;-7.470;2023-02-28T13:38:57;102663.47;;;6.23;100.00
64253;BME280;50592;52.958;-7.470;2023-02-28T13:44:19;102657.84;;;6.32;100.00
64253;BME280;50592;52.958;-7.470;2023-02-28T14:03:15;102655.16;;;6.12;100.00
64253;BME280;50592;52.958;-7.470;2023-02-28T14:05:44;102649.31;;;6.05;100.00
64253;BME280;50592;52.958;-7.470;2023-02-28T14:08:20;102660.53;;;6.08;100.00
64253;BME280;50592;52.958;-7.470;2023-02-28T14:10:49;102663.16;;;6.08;100.00
64253;BME280;50592;52.958;-7.470;2023-02-28T14:16:00;102650.81;;;6.11;100.00
64253;BME280;50592;52.958;-7.470;2023-02-28T14:26:49;102651.09;;;6.03;100.00
64253;BME280;50592;52.958;-7.470;2023-02-28T14:32:30;102632.56;;;6.07;100.00
64253;BME280;50592;52.958;-7.470;2023-02-28T14:35:20;102631.75;;;6.05;100.00
64253;BME280;50592;52.958;-7.470;2023-02-28T14:37:48;102635.41;;;6.01;100.00
64253;BME280;50592;52.958;-7.470;2023-02-28T14:40:22;102637.88;;;6.06;100.00
64253;BME280;50592;52.958;-7.470;2023-02-28T14:42:57;102629.22;;;6.02;100.00
64253;BME280;50592;52.958;-7.470;2023-02-28T14:45:23;102635.41;;;6.01;100.00
64253;BME280;50592;52.958;-7.470;2023-02-28T14:47:51;102639.03;;;5.99;100.00
64253;BME280;50592;52.958;-7.470;2023-02-28T14:50:22;102636.34;;;6.00;100.00
64253;BME280;50592;52.958;-7.470;2023-02-28T14:52:52;102636.28;;;6.02;100.00
64253;BME280;50592;52.958;-7.470;2023-02-28T14:55:19;102634.47;;;6.02;100.00
64253;BME280;50592;52.958;-7.470;2023-02-28T14:57:56;102646.50;;;6.10;100.00
64253;BME280;50592;52.958;-7.470;2023-02-28T15:00:28;102632.69;;;6.04;100.00
64253;BME280;50592;52.958;-7.470;2023-02-28T15:02:56;102624.91;;;6.01;100.00
64253;BME280;50592;52.958;-7.470;2023-02-28T15:05:26;102635.53;;;5.98;100.00
64253;BME280;50592;52.958;-7.470;2023-02-28T15:08:12;102632.72;;;6.03;100.00
64253;BME280;50592;52.958;-7.470;2023-02-28T15:10:42;102629.47;;;5.96;100.00
64253;BME280;50592;52.958;-7.470;2023-02-28T15:13:12;102626.00;;;5.95;100.00
64253;BME280;50592;52.958;-7.470;2023-02-28T15:15:58;102634.00;;;5.92;100.00